LFSBLFST

Guest
Details From LFSB - Bale-Mulhouse
To LFST - Entzheim
Flight Number -
Tags decoded
Created
Modified
Stats Distance 58 nm / 107 km
Max Altitude 0 ft / 0 m
Waypoints 3
Social Downloads 3
Likes 0
Share VATSIM

Download

Looking for another format? Having issues loading an existing format? Contact us
Advertisement - Login to hide

Notes

Requested: LFSB STR UR7 LUPEN LFST Unmatched points: UR7

Route

LFSB STR LFST

ID Type Via Altitude Latitude Longitude Leg Dist Tot Dist Heading (true) Name
O LFSB APT - 0 ft / 0 m 47.59581˚ 7.52481˚ - 0 nm - Bale-Mulhouse
STR VOR - 0 ft / 0 m 48.50539˚ 7.57197˚ 54 nm 54 nm 2° / 2° STRASBOURG ENTZHEIM VOR-DME
O LFST APT - 0 ft / 0 m 48.53833˚ 7.62826˚ 2 nm 57 nm 49° / 49° Entzheim

Altitude Profile

Advertisement - Login to hide

LFSB

Details ICAO LFSB (MLH)
Name Bale-Mulhouse
Region France
Timezone Europe/Paris (UTC+2.0)
Stats Elevation 885 ft / 270 m (AMSL)
Location 47.595810° 7.524806°
Runways 2
Magnetic Variation 2.140° E

METAR

Not found

TAF

TAF LFSB 272300Z 2800/2824 34005KT CAVOK TEMPO 2810/2823 FEW060CB PROB40 TEMPO 2812/2822 29010G20KT TSRA SCT050CB

Decode

Departure Runways

ID Width Length Bearing (true) Bearing (mag) Surface Threshold Offset Overrun Length
08 193 ft / 59 m 5,956 ft / 1,816 m 76.91° 74.77° Concrete 0 ft / 0 m 0 ft / 0 m
15 197 ft / 60 m 12,802 ft / 3,902 m 154.86° 152.72° Concrete 0 ft / 0 m 0 ft / 0 m
26 193 ft / 59 m 5,956 ft / 1,816 m 256.93° 254.79° Concrete 722 ft / 220 m 0 ft / 0 m
33 197 ft / 60 m 12,802 ft / 3,902 m 334.88° 332.74° Concrete 3,675 ft / 1,120 m 0 ft / 0 m

LFST

Details ICAO LFST (SXB)
Name Entzheim
Region France
Timezone Europe/Paris (UTC+2.0)
Stats Elevation 504 ft / 154 m (AMSL)
Location 48.538335° 7.628265°
Runways 1
Magnetic Variation 2.161° E

METAR

Not found

TAF

TAF LFST 272300Z 2800/2824 36004KT CAVOK PROB40 TEMPO 2800/2803 VRB15G25KT 4000 TSRA FEW060CB BECMG 2809/2812 FEW050CB TEMPO 2812/2824 SHRA PROB40 TEMPO 2813/2819 VRB15G25KT 4000 TSRA

Decode

Destination Runways

ID Width Length Bearing (true) Bearing (mag) Surface Threshold Offset Overrun Length
05 148 ft / 45 m 7,899 ft / 2,408 m 48.60° 46.44° Asphalt 0 ft / 0 m 860 ft / 262 m
23 148 ft / 45 m 7,899 ft / 2,408 m 228.62° 226.46° Asphalt 0 ft / 0 m 902 ft / 275 m

Approach Navaids

Runway Type Ident Frequency Range Bearing (true) Bearing (mag) Slope Elevation
05 Localiser ENT 108.55 MHz 18 nm / 33 km 48.63° 46.47° - 499 ft / 152 m (AMSL)
05 Glidescope ENT 108.55 MHz 10 nm / 19 km 48.61° 46.45° 3.50° 561 ft / 171 m (AMSL)
05 DME ENT 108.55 MHz 18 nm / 33 km - - - 504 ft / 154 m (AMSL)
23 Localiser STZ 109.55 MHz 18 nm / 33 km 228.59° 226.43° - 515 ft / 157 m (AMSL)
23 Glidescope STZ 109.55 MHz 10 nm / 19 km 228.61° 226.45° 3.00° 542 ft / 165 m (AMSL)
23 DME STZ 109.55 MHz 18 nm / 33 km - - - 504 ft / 154 m (AMSL)

Popular Alternatives